Watertown Municipal, SD

7:43 AM CDT on June 23, 2017 (GMT -0500)
Watertown Municipal | | Change Station

Elev 1745 ft 44.91 °N, 97.15 °W | Updated 50 minutes ago

Scattered Clouds
Scattered Clouds
56 °F
Feels Like 56 °F
N
17
Wind Variable Wind from WNW
Gusts 26 mph

Today
High -- | Low -- °F
--% Chance of Precip.
Yesterday
High -- | Low -- °F
Precip. -- in
Pressure 29.88 in
Visibility 10.0 miles
Clouds Scattered Clouds 4100 ft
Dew Point 50 °F
Humidity 80%
Rainfall 0.00 in
Snow Depth Not available.
5:42 AM 9:19 PM
Waning Crescent, 1% visible
METAR KATY 231153Z AUTO 30015G23KT 10SM SCT041 13/10 A2989 RMK AO2 PK WND 31027/1120 SLP117 70037 T01330100 10167 20122 53014
Pressure 29.88 in
Visibility 10.0 miles
Clouds Scattered Clouds 4100 ft
Dew Point 50 °F
Humidity 80%
Rainfall 0.00 in
Snow Depth Not available.
5:42 AM 9:19 PM
Waning Crescent, 1% visible
METAR KATY 231153Z AUTO 30015G23KT 10SM SCT041 13/10 A2989 RMK AO2 PK WND 31027/1120 SLP117 70037 T01330100 10167 20122 53014

Get Severe Weather Alerts

Thanks for signing up!

Be on the lookout for a verification email in your inbox.

You'll start receiving the daily forecast at 6 AM.

×

10-Day Weather Forecast

Almanac

Astronomy

Jun. 23, 2017 Rise Set
Actual Time
Civil Twilight
Nautical Twilight
Astronomical Twilight
Moon
Length of Visible Light
Length of Day
Tomorrow will be .
, % of the Moon is Illuminated

Today's Extremes

State Highs State Lows

Community

WunderPhotos

Category 6

Welcome to Category 6. This is the collective home for Weather Underground's featured writeups by Dr. Jeff Masters (right), Bob Henson (left), Chris Burt, and other regular contributors.

Nearby

Air Quality

  Air Quality AQ Index Pollutant
Not available.

Snow Depth

Station Depth Elevation

Earthquake Activity

City Distance Mag. Time & Date
Minimum magnitude displayed is 2.5.

Coastal Water Temperatures

Place Temperature

Stations

Nearby Weather Stations

Station Location Temp. Windchill Dew Point Humidity Wind Precip. Elev Updated Type
                   

Watches & Warnings

There are currently no watches in effect.